Terminal Aerodrome Forecast
Issued by NWS Brownsville, TX

Home | Current Version | Previous Version | Text Only | Print | Product List | Glossary On
Versions: 1 2 3 4 5 6 7 8 9 10 11 12 13 14 15 16 17
079
FTUS44 KBRO 242327 CCA
TAFMFE
TAF COR
KMFE 242327Z 2500/2524 12015KT P6SM VCSH SCT050
     FM250300 VRB03KT P6SM SCT250
      TEMPO 2508/2512 BKN015
     FM251300 15007KT P6SM SCT030
     FM252100 10011KT P6SM SCT250=

USA.gov is the U.S. government's official web portal to all federal, state and local government web resources and services.